»·PEaware :: N29143 KSNA-KBUR

N29143 :: KSNA-KBUR

FLIGHT INFORMATION

Flight Status: Arrived
Operator: Privately registered:
United States
More flights under this callsign
Pilot: Cannon L. (16231)
Aircraft: CESSNA 172 SKYHAWK
(C172)
More flights by this aircraft type
Origin: KSNA John Wayne-Orange Co
United States
Destination: KBUR Bob Hope-Burbank
United States
More flights between these airports :: More routes between these airports
Route: +SLI V23 POPPR SMO125R SMO SMO311R SILEX
File this flight plan on PilotEdge
Remarks: I-3 Rating
Altitude:
(Current/Filed)
4,000ft
Speed:
(Current/Filed)
115kts
Departed: 09-Aug-17 08:04 PM
Arrived: 09-Aug-17 08:46 PM
Distance/Time
Traveled:
40nm/0:41
Distance/Time
To Go:
Arrived

Flight Plot

Page will automatically refresh every two minutes.


Map Options




Map Legend


Flown Route
Filed Route
Departure Airport
Arrival Airport
Navaid (VOR, NDB)
Fix

Horizontal Profiles

Position Reports

Time Latitude Longitude Heading Altitude Ground
Speed
09-Aug-17 19:53 33.674542 -117.872123 118 60ft 0kts
09-Aug-17 19:54 33.674542 -117.872123 118 60ft 0kts
09-Aug-17 19:55 33.674542 -117.872123 118 60ft 0kts
09-Aug-17 19:56 33.674542 -117.872123 118 60ft 0kts
09-Aug-17 19:57 33.674542 -117.872123 118 60ft 0kts
09-Aug-17 19:58 33.674542 -117.872123 118 60ft 0kts
09-Aug-17 19:59 33.674542 -117.872123 118 60ft 0kts
09-Aug-17 20:00 33.674542 -117.872123 118 60ft 0kts
09-Aug-17 20:01 33.678696 -117.868437 23 60ft 36kts
09-Aug-17 20:02 33.681292 -117.866547 244 57ft 0kts
09-Aug-17 20:03 33.674557 -117.871199 72 60ft 18kts
09-Aug-17 20:04 33.681151 -117.866903 58 60ft 13kts
09-Aug-17 20:05 33.681179 -117.866834 69 60ft 0kts
09-Aug-17 20:06 33.680345 -117.865823 208 60ft 15kts
09-Aug-17 20:07 33.666405 -117.880433 229 545ft 86kts
09-Aug-17 20:08 33.650282 -117.901938 230 1245ft 95kts
09-Aug-17 20:09 33.634867 -117.927080 232 1940ft 94kts
09-Aug-17 20:10 33.627622 -117.953889 311 2617ft 101kts
09-Aug-17 20:11 33.644279 -117.967943 321 3125ft 100kts
09-Aug-17 20:12 33.664618 -117.980745 328 3699ft 98kts
09-Aug-17 20:13 33.685571 -117.993595 328 3998ft 116kts
09-Aug-17 20:14 33.711255 -118.009503 329 3989ft 129kts
09-Aug-17 20:15 33.736826 -118.025421 329 3987ft 130kts
09-Aug-17 20:16 33.763429 -118.042036 329 3986ft 131kts
09-Aug-17 20:17 33.785860 -118.067953 285 3984ft 124kts
09-Aug-17 20:18 33.796093 -118.105009 285 3985ft 124kts
09-Aug-17 20:19 33.805766 -118.142720 285 4041ft 120kts
09-Aug-17 20:20 33.815185 -118.179726 286 4043ft 121kts
09-Aug-17 20:21 33.824729 -118.217299 286 4045ft 121kts
09-Aug-17 20:22 33.834151 -118.254438 286 4047ft 120kts
09-Aug-17 20:23 33.846130 -118.290062 316 4053ft 120kts
09-Aug-17 20:24 33.870727 -118.316181 317 4053ft 121kts
09-Aug-17 20:25 33.895819 -118.341481 317 4055ft 122kts
09-Aug-17 20:26 33.920865 -118.366653 317 4058ft 123kts
09-Aug-17 20:27 33.944657 -118.390523 317 4055ft 112kts
09-Aug-17 20:28 33.967672 -118.413678 317 4060ft 109kts
09-Aug-17 20:29 33.990802 -118.437042 317 3994ft 112kts
09-Aug-17 20:30 34.014535 -118.459869 322 3990ft 110kts
09-Aug-17 20:31 34.038207 -118.482036 312 3991ft 109kts
09-Aug-17 20:32 34.059642 -118.507843 313 3991ft 109kts
09-Aug-17 20:33 34.081145 -118.533841 313 3991ft 109kts
09-Aug-17 20:34 34.102044 -118.559119 313 3991ft 109kts
09-Aug-17 20:35 34.123276 -118.584645 313 3991ft 110kts
09-Aug-17 20:36 34.145479 -118.611268 313 3734ft 113kts
09-Aug-17 20:37 34.165097 -118.634428 313 3712ft 100kts
09-Aug-17 20:38 34.185629 -118.650583 15 3711ft 106kts
09-Aug-17 20:39 34.198734 -118.622350 82 3711ft 106kts
09-Aug-17 20:40 34.200236 -118.590187 91 3488ft 118kts
09-Aug-17 20:41 34.200027 -118.554878 92 3073ft 124kts
09-Aug-17 20:42 34.199680 -118.522069 92 3002ft 108kts
09-Aug-17 20:43 34.199419 -118.492705 94 3001ft 98kts
09-Aug-17 20:44 34.199109 -118.468660 94 2997ft 79kts
09-Aug-17 20:45 34.199951 -118.448285 93 2765ft 82kts
09-Aug-17 20:46 34.199091 -118.421269 93 1822ft 116kts
09-Aug-17 20:47 34.198586 -118.392170 90 1135ft 96kts
09-Aug-17 20:48 34.197993 -118.368383 94 842ft 70kts
09-Aug-17 20:49 34.198612 -118.360411 353 781ft 0kts
09-Aug-17 20:50 34.200304 -118.359285 90 781ft 0kts
09-Aug-17 20:51 34.200304 -118.359285 90 781ft 0kts

Navigation Log

Ident Type
1. KSNA Airport
2. SLI Navaid
3. POPPR Fix
4. SMO Navaid
5. SILEX Fix
6. KBUR Airport